createdAt,value
2018-05-04T00:01:58.391Z,78.80
2018-05-04T00:04:25.836Z,78.70
2018-05-04T00:06:53.263Z,79.10
2018-05-04T00:09:20.724Z,79.10
2018-05-04T00:11:48.158Z,78.90
2018-05-04T00:14:15.626Z,78.90
2018-05-04T00:16:43.047Z,78.90
2018-05-04T00:19:10.499Z,79.00
2018-05-04T00:21:37.959Z,79.10
2018-05-04T00:24:05.408Z,79.70
2018-05-04T00:26:32.862Z,79.90
2018-05-04T00:29:00.291Z,79.40
2018-05-04T00:31:27.757Z,79.40
2018-05-04T00:33:55.209Z,79.60
2018-05-04T00:36:22.665Z,79.50
2018-05-04T00:38:50.136Z,79.60
2018-05-04T00:41:17.600Z,79.50
2018-05-04T00:43:45.024Z,78.90
2018-05-04T00:46:12.475Z,78.70
2018-05-04T00:48:39.909Z,78.90
2018-05-04T00:51:07.368Z,78.80
2018-05-04T00:56:35.328Z,78.60
2018-05-04T00:59:02.764Z,78.50
2018-05-04T01:01:30.204Z,78.30
2018-05-04T01:03:57.652Z,78.60
2018-05-04T01:06:25.124Z,78.40
2018-05-04T01:08:52.561Z,78.30
2018-05-04T01:11:20.008Z,77.80
2018-05-04T01:13:47.459Z,77.80
2018-05-04T01:16:14.899Z,77.70
2018-05-04T01:18:42.332Z,77.70
2018-05-04T01:21:09.765Z,77.60
2018-05-04T01:23:37.196Z,77.60
2018-05-04T01:26:04.637Z,78.20
2018-05-04T01:28:32.070Z,77.30
2018-05-04T01:30:59.508Z,77.60
2018-05-04T01:33:26.937Z,77.20
2018-05-04T01:35:54.411Z,77.20
2018-05-04T01:38:21.843Z,77.30
2018-05-04T01:40:49.293Z,77.40
2018-05-04T01:43:16.724Z,77.30
2018-05-04T01:45:44.171Z,77.50
2018-05-04T01:48:11.608Z,77.30
2018-05-04T01:50:39.072Z,77.20
2018-05-04T01:53:06.511Z,77.10
2018-05-04T01:55:33.949Z,77.20
2018-05-04T01:58:01.392Z,77.10
2018-05-04T02:00:28.834Z,77.10
2018-05-04T02:02:56.271Z,77.10
2018-05-04T02:05:23.728Z,76.80
2018-05-04T02:07:51.196Z,76.90
2018-05-04T02:10:18.708Z,77.10
2018-05-04T02:12:46.146Z,77.10
2018-05-04T02:15:14.366Z,77.10
2018-05-04T02:17:41.812Z,77.10
2018-05-04T02:20:09.251Z,77.20
2018-05-04T02:22:37.460Z,77.10
2018-05-04T02:25:04.912Z,77.10
2018-05-04T02:27:32.372Z,77.10
2018-05-04T02:29:59.835Z,77.20
2018-05-04T02:32:28.040Z,76.80
2018-05-04T02:34:55.478Z,76.80
2018-05-04T02:37:23.693Z,77.20
2018-05-04T02:39:51.136Z,77.20
2018-05-04T02:42:20.292Z,77.10
2018-05-04T02:44:47.736Z,77.30
2018-05-04T02:47:15.202Z,77.60
2018-05-04T02:49:42.657Z,77.60
2018-05-04T02:52:10.187Z,77.70
2018-05-04T02:54:37.612Z,77.90
2018-05-04T02:57:05.840Z,78.60
2018-05-04T02:59:33.280Z,77.80
2018-05-04T03:02:00.738Z,77.80
2018-05-04T03:04:28.205Z,77.80
2018-05-04T03:06:55.643Z,77.70
2018-05-04T03:09:23.852Z,77.80
2018-05-04T03:11:51.288Z,77.80
2018-05-04T03:14:18.720Z,78.30
2018-05-04T03:16:46.196Z,78.20
2018-05-04T03:19:13.638Z,78.30
2018-05-04T03:21:42.778Z,79.00
2018-05-04T03:24:11.020Z,79.10
2018-05-04T03:26:38.473Z,79.10
2018-05-04T03:29:05.923Z,78.90
2018-05-04T03:31:33.352Z,78.90
2018-05-04T03:34:01.596Z,79.10
2018-05-04T03:36:29.063Z,79.10
2018-05-04T03:38:56.515Z,79.00
2018-05-04T03:41:23.967Z,79.30
2018-05-04T03:43:51.416Z,79.80
2018-05-04T03:46:18.865Z,80.20
2018-05-04T03:48:46.313Z,80.00
2018-05-04T03:51:13.753Z,80.50
2018-05-04T03:53:41.231Z,80.20
2018-05-04T03:56:09.436Z,80.20
2018-05-04T03:58:48.888Z,80.10
2018-05-04T04:01:28.299Z,80.70
2018-05-04T04:04:16.767Z,80.60
2018-05-04T04:06:44.194Z,80.80
2018-05-04T04:09:11.780Z,81.50
2018-05-04T04:11:39.240Z,80.60
2018-05-04T04:14:06.700Z,80.70
2018-05-04T04:16:35.546Z,80.60
2018-05-04T04:19:02.993Z,80.80
2018-05-04T04:21:33.585Z,80.80
2018-05-04T04:24:01.040Z,81.00
2018-05-04T04:26:30.426Z,80.90
2018-05-04T04:29:00.476Z,80.90
2018-05-04T04:31:29.884Z,81.10
2018-05-04T04:33:57.344Z,81.10
2018-05-04T04:36:24.952Z,80.80
2018-05-04T04:38:52.440Z,80.90
2018-05-04T04:41:19.857Z,81.00
2018-05-04T04:43:47.309Z,80.70
2018-05-04T04:46:14.768Z,80.90
2018-05-04T04:48:42.236Z,80.80
2018-05-04T04:51:09.692Z,81.20
2018-05-04T04:53:37.181Z,81.50
2018-05-04T04:56:05.559Z,81.10
2018-05-04T04:58:33.000Z,81.10
2018-05-04T05:01:00.475Z,81.80
2018-05-04T05:03:27.912Z,81.80
2018-05-04T05:05:55.381Z,81.80
2018-05-04T05:08:22.824Z,81.80
2018-05-04T05:10:50.275Z,82.20
2018-05-04T05:13:18.509Z,82.30
2018-05-04T05:15:45.958Z,82.30
2018-05-04T05:18:13.422Z,83.00
2018-05-04T05:20:40.896Z,82.60
2018-05-04T05:23:08.333Z,82.40
2018-05-04T05:25:35.795Z,82.30
2018-05-04T05:28:03.255Z,82.50
2018-05-04T05:30:30.723Z,82.80
2018-05-04T05:32:58.206Z,83.40
2018-05-04T05:35:25.700Z,83.10
2018-05-04T05:37:53.160Z,83.30
2018-05-04T05:40:20.625Z,83.20
2018-05-04T05:42:48.081Z,83.00
2018-05-04T05:45:15.543Z,82.40
2018-05-04T05:47:43.004Z,82.60
2018-05-04T05:50:10.467Z,82.60
2018-05-04T05:52:37.930Z,82.80
2018-05-04T05:55:05.393Z,82.40
2018-05-04T05:57:32.855Z,83.00
2018-05-04T06:00:00.303Z,82.20
2018-05-04T06:02:27.754Z,82.50
2018-05-04T06:04:55.217Z,82.30
2018-05-04T06:07:22.684Z,82.30
2018-05-04T06:09:50.125Z,82.00
2018-05-04T06:12:17.580Z,82.00
2018-05-04T06:14:45.016Z,82.00
2018-05-04T06:17:13.248Z,81.60
2018-05-04T06:19:40.687Z,81.60
2018-05-04T06:22:08.137Z,81.90
2018-05-04T06:24:35.585Z,82.30
2018-05-04T06:27:03.812Z,81.80
2018-05-04T06:29:31.270Z,81.80
2018-05-04T06:31:58.713Z,81.70
2018-05-04T06:34:26.157Z,81.50
2018-05-04T06:36:53.618Z,81.30
2018-05-04T06:39:21.057Z,81.40
2018-05-04T06:41:48.515Z,82.00
2018-05-04T06:44:15.948Z,82.10
2018-05-04T06:46:43.423Z,82.60
2018-05-04T06:49:13.096Z,82.00
2018-05-04T06:51:40.559Z,82.10
2018-05-04T06:54:08.033Z,82.10
2018-05-04T06:56:35.484Z,81.90
2018-05-04T06:59:02.958Z,81.90
2018-05-04T07:01:30.410Z,82.00
2018-05-04T07:03:57.869Z,81.90
2018-05-04T07:06:25.327Z,81.60
2018-05-04T07:08:52.787Z,82.00
2018-05-04T07:11:20.245Z,81.70
2018-05-04T07:13:47.689Z,81.90
2018-05-04T07:16:15.899Z,81.40
2018-05-04T07:18:43.370Z,81.40
2018-05-04T07:21:10.804Z,81.30
2018-05-04T07:23:39.045Z,81.20
2018-05-04T07:26:06.506Z,81.10
2018-05-04T07:28:33.964Z,80.80
2018-05-04T07:31:01.397Z,80.90
2018-05-04T07:33:28.876Z,81.30
2018-05-04T07:35:56.362Z,81.10
2018-05-04T07:38:23.799Z,80.60
2018-05-04T07:40:51.263Z,80.30
2018-05-04T07:43:18.758Z,80.80
2018-05-04T07:45:46.195Z,80.90
2018-05-04T07:48:13.672Z,80.40
2018-05-04T07:50:41.120Z,80.70
2018-05-04T07:53:08.565Z,80.90
2018-05-04T07:55:36.023Z,81.00
2018-05-04T07:58:03.482Z,80.20
2018-05-04T08:00:30.937Z,80.00
2018-05-04T08:02:58.500Z,79.50
2018-05-04T08:05:25.831Z,80.70
2018-05-04T08:07:54.036Z,79.70
2018-05-04T08:10:21.509Z,79.70
2018-05-04T08:12:48.948Z,79.80
2018-05-04T08:15:16.401Z,80.00
2018-05-04T08:17:44.615Z,80.40
2018-05-04T08:20:12.085Z,80.40
2018-05-04T08:22:39.515Z,79.60
2018-05-04T08:25:06.968Z,80.10
2018-05-04T08:27:35.173Z,79.40
2018-05-04T08:30:02.641Z,80.10
2018-05-04T08:32:30.095Z,79.30
2018-05-04T08:34:57.540Z,79.10
2018-05-04T08:37:25.002Z,79.10
2018-05-04T08:39:53.255Z,78.90
2018-05-04T08:42:20.653Z,78.80
2018-05-04T08:44:48.139Z,78.90
2018-05-04T08:47:15.576Z,79.40
2018-05-04T08:49:43.038Z,78.70
2018-05-04T08:52:10.497Z,79.40
2018-05-04T08:54:38.692Z,78.60
2018-05-04T08:57:06.221Z,78.60
2018-05-04T08:59:33.621Z,78.70
2018-05-04T09:02:01.084Z,79.30
2018-05-04T09:04:28.547Z,79.70
2018-05-04T09:06:56.009Z,78.30
2018-05-04T09:09:23.461Z,78.90
2018-05-04T09:11:50.914Z,78.20
2018-05-04T09:14:18.360Z,78.20
2018-05-04T09:16:46.573Z,78.90
2018-05-04T09:19:14.032Z,78.80
2018-05-04T09:21:41.480Z,78.90
2018-05-04T09:24:08.944Z,78.40
2018-05-04T09:26:36.399Z,78.80
2018-05-04T09:29:04.599Z,77.90
2018-05-04T09:31:32.055Z,77.90
2018-05-04T09:33:59.511Z,77.00
2018-05-04T09:36:26.976Z,77.40
2018-05-04T09:38:54.437Z,77.10
2018-05-04T09:41:21.885Z,77.30
2018-05-04T09:43:50.120Z,78.00
2018-05-04T09:46:17.560Z,78.10
2018-05-04T09:48:45.020Z,76.30
2018-05-04T09:51:12.464Z,76.30
2018-05-04T09:53:39.916Z,76.30
2018-05-04T09:56:08.229Z,76.30
2018-05-04T09:58:35.609Z,76.30
2018-05-04T10:01:03.056Z,76.00
2018-05-04T10:03:30.529Z,75.40
2018-05-04T10:05:57.979Z,76.30
2018-05-04T10:08:25.432Z,76.00
2018-05-04T10:10:52.884Z,75.70
2018-05-04T10:13:20.335Z,76.50
2018-05-04T10:15:47.777Z,76.10
2018-05-04T10:18:15.235Z,76.00
2018-05-04T10:20:42.778Z,75.00
2018-05-04T10:23:11.000Z,74.90
2018-05-04T10:25:38.438Z,74.90
2018-05-04T10:28:05.895Z,74.80
2018-05-04T10:30:33.360Z,74.60
2018-05-04T10:33:00.821Z,74.80
2018-05-04T10:35:28.286Z,74.60
2018-05-04T10:37:55.731Z,74.40
2018-05-04T10:40:23.183Z,74.30
2018-05-04T10:42:50.693Z,74.10
2018-05-04T10:45:18.165Z,74.60
2018-05-04T10:47:46.420Z,73.60
2018-05-04T10:50:13.902Z,73.60
2018-05-04T10:52:42.116Z,75.00
2018-05-04T10:55:09.556Z,75.00
2018-05-04T10:57:37.012Z,74.50
2018-05-04T11:00:05.239Z,73.80
2018-05-04T11:02:32.683Z,73.80
2018-05-04T11:05:00.141Z,74.30
2018-05-04T11:07:27.608Z,73.70
2018-05-04T11:09:55.060Z,73.00
2018-05-04T11:12:22.555Z,73.40
2018-05-04T11:14:50.040Z,74.10
2018-05-04T11:17:17.502Z,74.90
2018-05-04T11:19:44.966Z,74.50
2018-05-04T11:22:12.413Z,73.70
2018-05-04T11:24:39.890Z,73.40
2018-05-04T11:27:07.331Z,73.70
2018-05-04T11:29:34.784Z,73.00
2018-05-04T11:32:02.258Z,73.00
2018-05-04T11:34:29.903Z,72.20
2018-05-04T11:36:57.364Z,72.10
2018-05-04T11:39:24.930Z,73.00
2018-05-04T11:41:52.388Z,73.40
2018-05-04T11:44:19.838Z,72.50
2018-05-04T11:46:47.298Z,72.90
2018-05-04T11:49:14.781Z,71.80
2018-05-04T11:51:42.210Z,71.90
2018-05-04T11:54:09.676Z,72.20
2018-05-04T11:56:37.173Z,72.30
2018-05-04T11:59:04.630Z,71.90
2018-05-04T12:01:32.072Z,73.60
2018-05-04T12:03:59.520Z,72.40
2018-05-04T12:06:26.987Z,72.00
2018-05-04T12:08:54.438Z,72.50
2018-05-04T12:11:22.657Z,72.30
2018-05-04T12:13:50.105Z,71.50
2018-05-04T12:16:17.641Z,70.60
2018-05-04T12:18:45.027Z,70.90
2018-05-04T12:21:12.477Z,71.50
2018-05-04T12:23:39.957Z,72.20
2018-05-04T12:26:07.418Z,70.50
2018-05-04T12:28:34.864Z,71.30
2018-05-04T12:31:02.344Z,71.80
2018-05-04T12:33:29.810Z,71.70
2018-05-04T12:35:57.268Z,70.60
2018-05-04T12:38:24.768Z,71.20
2018-05-04T12:40:52.946Z,70.00
2018-05-04T12:43:20.420Z,69.90
2018-05-04T12:45:47.849Z,70.00
2018-05-04T12:48:15.375Z,70.60
2018-05-04T12:50:43.600Z,71.20
2018-05-04T12:53:11.050Z,71.20
2018-05-04T12:55:38.495Z,70.40
2018-05-04T12:58:05.967Z,69.70
2018-05-04T13:00:33.428Z,69.10
2018-05-04T13:03:00.896Z,68.70
2018-05-04T13:05:28.353Z,69.70
2018-05-04T13:07:55.798Z,69.70
2018-05-04T13:10:23.276Z,69.60
2018-05-04T13:12:50.740Z,69.50
2018-05-04T13:15:18.202Z,69.90
2018-05-04T13:17:45.677Z,69.60
2018-05-04T13:20:13.124Z,69.50
2018-05-04T13:22:40.596Z,69.90
2018-05-04T13:25:08.049Z,69.40
2018-05-04T13:27:35.536Z,68.30
2018-05-04T13:30:02.997Z,69.60
2018-05-04T13:32:30.453Z,69.00
2018-05-04T13:34:57.928Z,69.20
2018-05-04T13:37:25.376Z,69.50
2018-05-04T13:39:52.839Z,69.60
2018-05-04T13:42:20.290Z,69.50
2018-05-04T13:44:47.748Z,70.70
2018-05-04T13:47:15.193Z,69.70
2018-05-04T13:49:42.648Z,69.50
2018-05-04T13:52:10.853Z,69.60
2018-05-04T13:54:38.315Z,69.60
2018-05-04T13:57:05.785Z,69.50
2018-05-04T13:59:33.235Z,69.70
2018-05-04T14:02:00.708Z,69.50
2018-05-04T14:04:28.167Z,69.90
2018-05-04T14:06:55.633Z,69.50
2018-05-04T14:09:23.870Z,69.00
2018-05-04T14:11:51.327Z,68.90
2018-05-04T14:14:18.788Z,69.10
2018-05-04T14:16:46.235Z,69.80
2018-05-04T14:19:13.687Z,69.80
2018-05-04T14:21:49.516Z,69.30
2018-05-04T14:24:16.964Z,69.60
2018-05-04T14:26:44.413Z,70.20
2018-05-04T14:29:12.644Z,70.60
2018-05-04T14:31:40.106Z,70.60
2018-05-04T14:34:07.572Z,70.30
2018-05-04T14:36:35.017Z,69.70
2018-05-04T14:39:02.470Z,70.00
2018-05-04T14:41:31.034Z,70.50
2018-05-04T14:44:01.417Z,70.60
2018-05-04T14:46:30.375Z,70.40
2018-05-04T14:48:57.884Z,70.30
2018-05-04T14:51:25.413Z,70.40
2018-05-04T14:53:52.799Z,70.60
2018-05-04T14:56:20.240Z,70.90
2018-05-04T14:58:47.700Z,70.90
2018-05-04T15:01:15.158Z,71.10
2018-05-04T15:03:42.596Z,71.00
2018-05-04T15:06:10.065Z,70.90
2018-05-04T15:08:37.514Z,70.80
2018-05-04T15:11:05.859Z,71.60
2018-05-04T15:13:33.302Z,71.60
2018-05-04T15:16:04.825Z,71.10
2018-05-04T15:18:39.742Z,71.20
2018-05-04T15:21:09.520Z,71.40
2018-05-04T15:23:36.976Z,71.30
2018-05-04T15:26:04.664Z,71.80
2018-05-04T15:28:32.103Z,72.10
2018-05-04T15:31:00.329Z,72.20
2018-05-04T15:33:28.549Z,72.20
2018-05-04T15:35:56.013Z,72.00
2018-05-04T15:38:23.471Z,71.80
2018-05-04T15:40:56.999Z,71.00
2018-05-04T15:43:24.557Z,72.30
2018-05-04T15:45:52.029Z,71.90
2018-05-04T15:48:25.084Z,71.90
2018-05-04T15:50:58.172Z,72.30
2018-05-04T15:53:25.645Z,71.30
2018-05-04T15:55:53.107Z,71.10
2018-05-04T15:58:20.556Z,70.80
2018-05-04T16:00:48.022Z,71.60
2018-05-04T16:03:15.459Z,70.70
2018-05-04T16:05:43.701Z,71.30
2018-05-04T16:08:11.155Z,71.30
2018-05-04T16:10:38.621Z,70.80
2018-05-04T16:13:06.084Z,69.90
2018-05-04T16:15:33.535Z,70.40
2018-05-04T16:18:01.008Z,70.40
2018-05-04T16:20:28.461Z,70.40
2018-05-04T16:22:56.001Z,69.90
2018-05-04T16:25:23.459Z,70.20
2018-05-04T16:27:50.920Z,71.00
2018-05-04T16:30:18.392Z,70.60
2018-05-04T16:32:45.901Z,70.90
2018-05-04T16:35:13.337Z,71.30
2018-05-04T16:37:40.787Z,70.10
2018-05-04T16:40:08.248Z,69.80
2018-05-04T16:42:35.713Z,69.30
2018-05-04T16:45:03.240Z,69.50
2018-05-04T16:47:30.633Z,69.50
2018-05-04T16:49:58.071Z,70.20
2018-05-04T16:52:25.530Z,69.90
2018-05-04T16:54:53.738Z,70.80
2018-05-04T16:57:21.193Z,70.80
2018-05-04T16:59:48.688Z,70.70
2018-05-04T17:02:16.149Z,71.00
2018-05-04T17:04:44.368Z,70.20
2018-05-04T17:07:12.625Z,70.00
2018-05-04T17:09:40.107Z,70.00
2018-05-04T17:12:08.358Z,69.70
2018-05-04T17:14:35.818Z,69.80
2018-05-04T17:17:03.278Z,69.80
2018-05-04T17:19:30.723Z,70.00
2018-05-04T17:21:58.192Z,70.00
2018-05-04T17:24:25.659Z,69.70
2018-05-04T17:26:53.121Z,69.90
2018-05-04T17:29:20.578Z,69.60
2018-05-04T17:31:48.049Z,69.50
2018-05-04T17:34:15.489Z,69.70
2018-05-04T17:36:43.720Z,69.60
2018-05-04T17:39:11.170Z,69.60
2018-05-04T17:41:38.630Z,69.60
2018-05-04T17:44:06.097Z,69.70
2018-05-04T17:46:33.549Z,69.70
2018-05-04T17:49:02.527Z,70.90
2018-05-04T17:51:29.977Z,70.20
2018-05-04T17:53:57.443Z,70.10
2018-05-04T17:56:24.887Z,70.10
2018-05-04T17:58:52.345Z,70.40
2018-05-04T18:01:19.795Z,70.20
2018-05-04T18:03:48.024Z,69.70
2018-05-04T18:06:15.524Z,69.70
2018-05-04T18:08:42.988Z,69.70
2018-05-04T18:11:10.465Z,70.00
2018-05-04T18:13:37.992Z,70.00
2018-05-04T18:16:05.460Z,69.70
2018-05-04T18:18:32.926Z,70.00
2018-05-04T18:21:00.365Z,70.20
2018-05-04T18:23:27.821Z,69.90
2018-05-04T18:25:55.275Z,69.70
2018-05-04T18:28:22.727Z,70.00
2018-05-04T18:30:51.983Z,70.00
2018-05-04T18:33:19.447Z,69.80
2018-05-04T18:35:46.900Z,70.40
2018-05-04T18:38:14.373Z,70.10
2018-05-04T18:40:45.250Z,70.10
2018-05-04T18:43:12.720Z,70.00
2018-05-04T18:45:42.596Z,70.00
2018-05-04T18:48:10.890Z,69.60
2018-05-04T18:50:39.443Z,69.60
2018-05-04T18:53:06.899Z,69.70
2018-05-04T18:55:37.407Z,68.90
2018-05-04T18:58:04.858Z,68.20
2018-05-04T19:00:32.570Z,68.40
2018-05-04T19:03:05.969Z,68.30
2018-05-04T19:05:37.001Z,68.10
2018-05-04T19:08:04.432Z,68.40
2018-05-04T19:10:32.016Z,68.70
2018-05-04T19:12:59.488Z,68.00
2018-05-04T19:15:26.935Z,68.70
2018-05-04T19:17:54.377Z,68.40
2018-05-04T19:20:21.831Z,68.30
2018-05-04T19:22:49.287Z,68.60
2018-05-04T19:25:16.761Z,69.10
2018-05-04T19:27:44.204Z,70.30
2018-05-04T19:30:12.437Z,70.20
2018-05-04T19:32:39.893Z,70.20
2018-05-04T19:35:07.338Z,69.60
2018-05-04T19:37:34.777Z,69.40
2018-05-04T19:40:02.976Z,69.30
2018-05-04T19:42:30.430Z,69.20
2018-05-04T19:44:57.859Z,69.60
2018-05-04T19:47:25.313Z,69.70
2018-05-04T19:49:52.778Z,69.80
2018-05-04T19:52:20.220Z,69.70
2018-05-04T19:54:47.668Z,69.70
2018-05-04T19:57:15.140Z,69.90
2018-05-04T19:59:42.581Z,70.20
2018-05-04T20:02:10.022Z,70.20
2018-05-04T20:04:38.249Z,70.60
2018-05-04T20:07:05.749Z,70.60
2018-05-04T20:09:33.137Z,70.40
2018-05-04T20:12:00.602Z,70.40
2018-05-04T20:14:28.058Z,70.20
2018-05-04T20:16:56.405Z,70.10
2018-05-04T20:19:25.392Z,70.30
2018-05-04T20:21:52.824Z,70.30
2018-05-04T20:24:20.277Z,70.40
2018-05-04T20:26:47.729Z,70.40
2018-05-04T20:29:15.170Z,70.40
2018-05-04T20:31:43.381Z,70.80
2018-05-04T20:34:10.838Z,70.60
2018-05-04T20:36:38.285Z,70.80
2018-05-04T20:39:05.732Z,70.80
2018-05-04T20:41:33.961Z,71.10
2018-05-04T20:44:01.494Z,71.10
2018-05-04T20:46:28.871Z,71.10
2018-05-04T20:48:56.325Z,71.30
2018-05-04T20:51:24.121Z,71.20
2018-05-04T20:53:51.559Z,71.10
2018-05-04T20:56:19.006Z,71.30
2018-05-04T20:58:46.445Z,71.00
2018-05-04T21:01:13.895Z,70.90
2018-05-04T21:03:41.327Z,71.40
2018-05-04T21:06:08.772Z,71.30
2018-05-04T21:08:36.205Z,71.50
2018-05-04T21:11:04.429Z,71.70
2018-05-04T21:13:31.861Z,71.70
2018-05-04T21:15:59.303Z,71.90
2018-05-04T21:18:27.514Z,72.00
2018-05-04T21:20:54.952Z,72.00
2018-05-04T21:23:23.159Z,72.30
2018-05-04T21:25:50.589Z,72.30
2018-05-04T21:28:18.818Z,72.80
2018-05-04T21:30:46.264Z,72.80
2018-05-04T21:33:13.723Z,73.00
2018-05-04T21:35:41.160Z,72.60
2018-05-04T21:38:09.383Z,73.10
2018-05-04T21:40:36.828Z,73.10
2018-05-04T21:43:04.284Z,72.80
2018-05-04T21:45:31.720Z,72.90
2018-05-04T21:47:59.962Z,72.80
2018-05-04T21:50:27.424Z,72.80
2018-05-04T21:52:54.885Z,72.50
2018-05-04T21:55:22.466Z,72.60
2018-05-04T21:57:49.947Z,72.60
2018-05-04T22:00:18.151Z,73.70
2018-05-04T22:02:45.595Z,73.80
2018-05-04T22:05:13.812Z,74.30
2018-05-04T22:07:41.261Z,74.20
2018-05-04T22:10:08.725Z,74.40
2018-05-04T22:12:36.185Z,74.50
2018-05-04T22:15:04.419Z,74.50
2018-05-04T22:17:31.855Z,74.50
2018-05-04T22:19:59.313Z,74.60
2018-05-04T22:22:26.780Z,74.40
2018-05-04T22:24:54.219Z,74.30
2018-05-04T22:27:21.674Z,74.30
2018-05-04T22:29:49.138Z,74.10
2018-05-04T22:32:16.579Z,74.10
2018-05-04T22:34:44.797Z,74.10
2018-05-04T22:37:12.252Z,74.00
2018-05-04T22:39:39.724Z,73.80
2018-05-04T22:42:07.166Z,73.70
2018-05-04T22:44:34.629Z,73.40
2018-05-04T22:47:02.976Z,73.50
2018-05-04T22:49:31.213Z,74.00
2018-05-04T22:51:58.677Z,73.90
2018-05-04T22:54:26.128Z,74.90
2018-05-04T22:56:53.586Z,74.40
2018-05-04T22:59:21.056Z,74.30
2018-05-04T23:01:48.511Z,74.50
2018-05-04T23:04:15.971Z,74.70
2018-05-04T23:06:43.443Z,74.50
2018-05-04T23:09:10.897Z,75.20
2018-05-04T23:11:38.356Z,75.10
2018-05-04T23:14:05.803Z,75.00
2018-05-04T23:16:33.241Z,75.40
2018-05-04T23:19:01.467Z,75.00
2018-05-04T23:21:28.919Z,75.00
2018-05-04T23:23:56.383Z,75.40
2018-05-04T23:26:23.832Z,75.20
2018-05-04T23:28:51.302Z,75.40
2018-05-04T23:31:18.741Z,75.40
2018-05-04T23:33:46.961Z,75.30
2018-05-04T23:36:14.427Z,75.30
2018-05-04T23:38:41.871Z,75.50
2018-05-04T23:41:09.306Z,75.90
2018-05-04T23:43:36.752Z,75.90
